sensor_id;sensor_type;location;lat;lon;timestamp;pressure;altitude;pressure_sealevel;temperature;humidity
48077;BME280;33854;57.708;12.008;2023-03-31T00:01:11;96397.09;;;1.74;100.00
48077;BME280;33854;57.708;12.008;2023-03-31T00:03:37;96396.88;;;1.77;100.00
48077;BME280;33854;57.708;12.008;2023-03-31T00:06:09;96401.19;;;1.77;100.00
48077;BME280;33854;57.708;12.008;2023-03-31T00:08:35;96395.34;;;1.75;100.00
48077;BME280;33854;57.708;12.008;2023-03-31T00:11:05;96395.47;;;1.73;100.00
48077;BME280;33854;57.708;12.008;2023-03-31T00:13:31;96390.47;;;1.71;100.00
48077;BME280;33854;57.708;12.008;2023-03-31T00:16:05;96388.94;;;1.69;100.00
48077;BME280;33854;57.708;12.008;2023-03-31T00:18:32;96374.47;;;1.68;100.00
48077;BME280;33854;57.708;12.008;2023-03-31T00:21:18;96365.81;;;1.69;100.00
48077;BME280;33854;57.708;12.008;2023-03-31T00:23:54;96366.75;;;1.68;100.00
48077;BME280;33854;57.708;12.008;2023-03-31T00:26:20;96369.19;;;1.69;100.00
48077;BME280;33854;57.708;12.008;2023-03-31T00:28:51;96367.56;;;1.68;100.00
48077;BME280;33854;57.708;12.008;2023-03-31T00:31:17;96346.56;;;1.63;100.00
48077;BME280;33854;57.708;12.008;2023-03-31T00:33:43;96339.91;;;1.61;100.00
48077;BME280;33854;57.708;12.008;2023-03-31T00:36:08;96358.78;;;1.71;100.00
48077;BME280;33854;57.708;12.008;2023-03-31T00:38:34;96348.50;;;1.71;100.00
48077;BME280;33854;57.708;12.008;2023-03-31T00:41:01;96340.91;;;1.69;100.00
48077;BME280;33854;57.708;12.008;2023-03-31T00:43:31;96343.25;;;1.72;100.00
48077;BME280;33854;57.708;12.008;2023-03-31T00:46:25;96338.09;;;1.72;100.00
48077;BME280;33854;57.708;12.008;2023-03-31T00:48:56;96338.09;;;1.72;100.00
48077;BME280;33854;57.708;12.008;2023-03-31T00:51:23;96336.09;;;1.76;100.00
48077;BME280;33854;57.708;12.008;2023-03-31T00:53:53;96332.72;;;1.76;100.00
48077;BME280;33854;57.708;12.008;2023-03-31T00:56:22;96337.63;;;1.79;100.00
48077;BME280;33854;57.708;12.008;2023-03-31T00:58:48;96346.28;;;1.78;100.00
48077;BME280;33854;57.708;12.008;2023-03-31T01:01:17;96327.34;;;1.79;100.00
48077;BME280;33854;57.708;12.008;2023-03-31T01:03:45;96331.09;;;1.75;100.00
48077;BME280;33854;57.708;12.008;2023-03-31T01:06:12;96338.81;;;1.75;100.00
48077;BME280;33854;57.708;12.008;2023-03-31T01:08:38;96336.78;;;1.78;100.00
48077;BME280;33854;57.708;12.008;2023-03-31T01:11:06;96346.38;;;1.76;100.00
48077;BME280;33854;57.708;12.008;2023-03-31T01:13:36;96331.09;;;1.75;100.00
48077;BME280;33854;57.708;12.008;2023-03-31T01:16:03;96332.84;;;1.74;100.00
48077;BME280;33854;57.708;12.008;2023-03-31T01:18:28;96336.25;;;1.75;100.00
48077;BME280;33854;57.708;12.008;2023-03-31T01:26:47;96313.41;;;1.81;100.00
48077;BME280;33854;57.708;12.008;2023-03-31T01:46:12;96325.47;;;1.81;100.00
48077;BME280;33854;57.708;12.008;2023-03-31T01:49:07;96343.13;;;1.74;100.00
48077;BME280;33854;57.708;12.008;2023-03-31T01:51:58;96347.34;;;1.75;100.00
48077;BME280;33854;57.708;12.008;2023-03-31T01:57:44;96346.56;;;1.63;100.00
48077;BME280;33854;57.708;12.008;2023-03-31T02:00:13;96336.88;;;1.56;100.00
48077;BME280;33854;57.708;12.008;2023-03-31T02:05:13;96342.47;;;1.61;100.00
48077;BME280;33854;57.708;12.008;2023-03-31T02:07:45;96350.16;;;1.61;100.00
48077;BME280;33854;57.708;12.008;2023-03-31T02:10:12;96348.44;;;1.61;100.00
48077;BME280;33854;57.708;12.008;2023-03-31T02:12:41;96340.72;;;1.61;100.00
48077;BME280;33854;57.708;12.008;2023-03-31T02:15:10;96339.09;;;1.60;100.00
48077;BME280;33854;57.708;12.008;2023-03-31T02:17:39;96344.78;;;1.64;100.00
48077;BME280;33854;57.708;12.008;2023-03-31T02:20:11;96339.66;;;1.64;100.00
48077;BME280;33854;57.708;12.008;2023-03-31T02:22:42;96343.88;;;1.65;100.00
48077;BME280;33854;57.708;12.008;2023-03-31T02:25:13;96336.16;;;1.65;100.00
48077;BME280;33854;57.708;12.008;2023-03-31T02:27:49;96328.94;;;1.59;100.00
48077;BME280;33854;57.708;12.008;2023-03-31T02:30:17;96331.69;;;1.67;100.00
48077;BME280;33854;57.708;12.008;2023-03-31T02:32:43;96333.16;;;1.60;100.00
48077;BME280;33854;57.708;12.008;2023-03-31T02:35:18;96317.72;;;1.60;100.00
48077;BME280;33854;57.708;12.008;2023-03-31T02:37:46;96321.22;;;1.59;100.00
48077;BME280;33854;57.708;12.008;2023-03-31T02:40:20;96311.63;;;1.61;100.00
48077;BME280;33854;57.708;12.008;2023-03-31T02:42:46;96312.59;;;1.60;100.00
48077;BME280;33854;57.708;12.008;2023-03-31T02:45:38;96309.06;;;1.61;100.00
48077;BME280;33854;57.708;12.008;2023-03-31T02:48:06;96299.03;;;1.58;100.00
48077;BME280;33854;57.708;12.008;2023-03-31T02:51:23;96309.78;;;1.63;100.00
48077;BME280;33854;57.708;12.008;2023-03-31T02:56:31;96303.25;;;1.59;100.00
48077;BME280;33854;57.708;12.008;2023-03-31T03:07:45;96289.03;;;1.55;100.00
48077;BME280;33854;57.708;12.008;2023-03-31T03:12:58;96278.41;;;1.48;100.00
48077;BME280;33854;57.708;12.008;2023-03-31T03:15:37;96273.28;;;1.48;100.00
48077;BME280;33854;57.708;12.008;2023-03-31T03:18:07;96283.31;;;1.51;100.00
48077;BME280;33854;57.708;12.008;2023-03-31T03:20:33;96291.25;;;1.48;100.00
48077;BME280;33854;57.708;12.008;2023-03-31T03:23:00;96286.22;;;1.47;100.00
48077;BME280;33854;57.708;12.008;2023-03-31T03:25:25;96280.53;;;1.43;100.00
48077;BME280;33854;57.708;12.008;2023-03-31T03:27:51;96287.19;;;1.46;100.00
48077;BME280;33854;57.708;12.008;2023-03-31T03:30:18;96285.44;;;1.46;100.00
48077;BME280;33854;57.708;12.008;2023-03-31T03:32:43;96278.75;;;1.44;100.00
48077;BME280;33854;57.708;12.008;2023-03-31T03:35:10;96283.56;;;1.48;100.00
48077;BME280;33854;57.708;12.008;2023-03-31T03:37:36;96278.69;;;1.34;100.00
48077;BME280;33854;57.708;12.008;2023-03-31T03:40:02;96283.91;;;1.44;100.00
48077;BME280;33854;57.708;12.008;2023-03-31T03:42:30;96295.81;;;1.45;100.00
48077;BME280;33854;57.708;12.008;2023-03-31T03:44:56;96291.75;;;1.42;100.00
48077;BME280;33854;57.708;12.008;2023-03-31T03:47:21;96279.03;;;1.30;100.00
48077;BME280;33854;57.708;12.008;2023-03-31T03:49:46;96301.09;;;1.43;100.00
48077;BME280;33854;57.708;12.008;2023-03-31T03:52:13;96305.16;;;1.46;100.00
48077;BME280;33854;57.708;12.008;2023-03-31T03:54:39;96307.59;;;1.47;100.00
48077;BME280;33854;57.708;12.008;2023-03-31T03:57:04;96312.97;;;1.44;100.00
48077;BME280;33854;57.708;12.008;2023-03-31T03:59:30;96318.84;;;1.46;100.00
48077;BME280;33854;57.708;12.008;2023-03-31T04:01:56;96308.66;;;1.45;100.00
48077;BME280;33854;57.708;12.008;2023-03-31T04:04:23;96321.25;;;1.48;100.00
48077;BME280;33854;57.708;12.008;2023-03-31T04:06:48;96322.09;;;1.48;100.00
48077;BME280;33854;57.708;12.008;2023-03-31T04:09:14;96318.25;;;1.43;100.00
48077;BME280;33854;57.708;12.008;2023-03-31T04:11:40;96320.69;;;1.44;100.00
48077;BME280;33854;57.708;12.008;2023-03-31T04:14:05;96325.81;;;1.44;100.00
48077;BME280;33854;57.708;12.008;2023-03-31T04:16:31;96326.53;;;1.46;100.00
48077;BME280;33854;57.708;12.008;2023-03-31T04:18:58;96324.06;;;1.45;100.00
48077;BME280;33854;57.708;12.008;2023-03-31T04:21:28;96314.47;;;1.47;100.00
48077;BME280;33854;57.708;12.008;2023-03-31T04:23:55;96312.97;;;1.44;100.00
48077;BME280;33854;57.708;12.008;2023-03-31T04:26:27;96312.06;;;1.45;100.00
48077;BME280;33854;57.708;12.008;2023-03-31T04:29:06;96312.97;;;1.44;100.00
48077;BME280;33854;57.708;12.008;2023-03-31T04:31:32;96303.53;;;1.45;100.00
48077;BME280;33854;57.708;12.008;2023-03-31T04:34:03;96306.78;;;1.47;100.00
48077;BME280;33854;57.708;12.008;2023-03-31T04:36:31;96304.94;;;1.49;100.00
48077;BME280;33854;57.708;12.008;2023-03-31T04:38:57;96305.84;;;1.48;100.00
48077;BME280;33854;57.708;12.008;2023-03-31T04:41:23;96285.97;;;1.50;100.00
48077;BME280;33854;57.708;12.008;2023-03-31T04:43:49;96283.88;;;1.55;100.00
48077;BME280;33854;57.708;12.008;2023-03-31T04:46:15;96298.34;;;1.56;100.00
48077;BME280;33854;57.708;12.008;2023-03-31T04:48:41;96298.34;;;1.56;100.00
48077;BME280;33854;57.708;12.008;2023-03-31T04:51:06;96301.59;;;1.58;100.00
48077;BME280;33854;57.708;12.008;2023-03-31T04:53:33;96314.13;;;1.51;100.00
48077;BME280;33854;57.708;12.008;2023-03-31T04:55:58;96328.03;;;1.49;100.00
48077;BME280;33854;57.708;12.008;2023-03-31T04:58:24;96324.91;;;1.45;100.00
48077;BME280;33854;57.708;12.008;2023-03-31T05:00:50;96334.50;;;1.43;100.00
48077;BME280;33854;57.708;12.008;2023-03-31T05:03:16;96344.88;;;1.42;100.00
48077;BME280;33854;57.708;12.008;2023-03-31T05:05:41;96350.25;;;1.39;100.00
48077;BME280;33854;57.708;12.008;2023-03-31T05:08:07;96361.34;;;1.39;100.00
48077;BME280;33854;57.708;12.008;2023-03-31T05:10:32;96361.19;;;1.41;100.00
48077;BME280;33854;57.708;12.008;2023-03-31T05:12:57;96363.09;;;1.39;100.00
48077;BME280;33854;57.708;12.008;2023-03-31T05:15:23;96360.28;;;1.42;100.00
48077;BME280;33854;57.708;12.008;2023-03-31T05:17:49;96357.13;;;1.38;100.00
48077;BME280;33854;57.708;12.008;2023-03-31T05:20:17;96362.50;;;1.35;100.00
48077;BME280;33854;57.708;12.008;2023-03-31T05:22:43;96351.06;;;1.39;100.00
48077;BME280;33854;57.708;12.008;2023-03-31T05:25:09;96353.38;;;1.42;100.00
48077;BME280;33854;57.708;12.008;2023-03-31T05:27:36;96348.25;;;1.42;100.00
48077;BME280;33854;57.708;12.008;2023-03-31T05:30:03;96346.38;;;1.44;100.00
48077;BME280;33854;57.708;12.008;2023-03-31T05:32:29;96352.56;;;1.42;100.00
48077;BME280;33854;57.708;12.008;2023-03-31T05:34:54;96362.63;;;1.34;100.00
48077;BME280;33854;57.708;12.008;2023-03-31T05:37:23;96372.91;;;1.34;100.00
48077;BME280;33854;57.708;12.008;2023-03-31T05:39:49;96366.13;;;1.33;100.00
48077;BME280;33854;57.708;12.008;2023-03-31T05:42:15;96373.16;;;1.31;100.00
48077;BME280;33854;57.708;12.008;2023-03-31T05:44:40;96370.00;;;1.27;100.00
48077;BME280;33854;57.708;12.008;2023-03-31T05:47:05;96365.56;;;1.29;100.00
48077;BME280;33854;57.708;12.008;2023-03-31T05:49:31;96374.31;;;1.27;100.00
48077;BME280;33854;57.708;12.008;2023-03-31T05:51:56;96368.16;;;1.29;100.00
48077;BME280;33854;57.708;12.008;2023-03-31T05:54:22;96358.22;;;1.25;100.00
48077;BME280;33854;57.708;12.008;2023-03-31T05:56:47;96369.88;;;1.29;100.00
48077;BME280;33854;57.708;12.008;2023-03-31T05:59:13;96370.34;;;1.34;100.00
48077;BME280;33854;57.708;12.008;2023-03-31T06:01:39;96383.41;;;1.31;100.00
48077;BME280;33854;57.708;12.008;2023-03-31T06:04:05;96379.94;;;1.32;100.00
48077;BME280;33854;57.708;12.008;2023-03-31T06:06:30;96373.16;;;1.31;100.00
48077;BME280;33854;57.708;12.008;2023-03-31T06:08:57;96382.13;;;1.36;100.00
48077;BME280;33854;57.708;12.008;2023-03-31T06:11:23;96381.88;;;1.39;100.00
48077;BME280;33854;57.708;12.008;2023-03-31T06:13:49;96382.50;;;1.32;100.00
48077;BME280;33854;57.708;12.008;2023-03-31T06:16:15;96396.72;;;1.36;100.00
48077;BME280;33854;57.708;12.008;2023-03-31T06:18:42;96400.34;;;1.33;100.00
48077;BME280;33854;57.708;12.008;2023-03-31T06:21:11;96378.53;;;1.17;100.00
48077;BME280;33854;57.708;12.008;2023-03-31T06:23:37;96408.88;;;1.34;100.00
48077;BME280;33854;57.708;12.008;2023-03-31T06:26:07;96410.97;;;1.40;100.00
48077;BME280;33854;57.708;12.008;2023-03-31T06:28:34;96407.56;;;1.39;100.00
48077;BME280;33854;57.708;12.008;2023-03-31T06:33:26;96413.28;;;1.43;100.00
48077;BME280;33854;57.708;12.008;2023-03-31T06:35:54;96421.00;;;1.43;100.00
48077;BME280;33854;57.708;12.008;2023-03-31T06:38:20;96418.78;;;1.38;100.00
48077;BME280;33854;57.708;12.008;2023-03-31T06:40:45;96417.47;;;1.44;100.00
48077;BME280;33854;57.708;12.008;2023-03-31T06:43:11;96417.38;;;1.45;100.00
48077;BME280;33854;57.708;12.008;2023-03-31T06:45:36;96426.25;;;1.41;100.00
48077;BME280;33854;57.708;12.008;2023-03-31T06:48:02;96424.03;;;1.37;100.00
48077;BME280;33854;57.708;12.008;2023-03-31T06:50:27;96436.19;;;1.46;100.00
48077;BME280;33854;57.708;12.008;2023-03-31T06:52:53;96422.41;;;1.36;100.00
48077;BME280;33854;57.708;12.008;2023-03-31T06:55:19;96447.97;;;1.48;100.00
48077;BME280;33854;57.708;12.008;2023-03-31T06:57:45;96445.97;;;1.52;100.00
48077;BME280;33854;57.708;12.008;2023-03-31T07:00:11;96455.06;;;1.56;100.00
48077;BME280;33854;57.708;12.008;2023-03-31T07:02:37;96465.34;;;1.56;100.00
48077;BME280;33854;57.708;12.008;2023-03-31T07:05:02;96469.34;;;1.49;100.00
48077;BME280;33854;57.708;12.008;2023-03-31T07:07:31;96474.34;;;1.61;100.00
48077;BME280;33854;57.708;12.008;2023-03-31T07:09:56;96474.47;;;1.60;100.00
48077;BME280;33854;57.708;12.008;2023-03-31T07:12:22;96493.34;;;1.70;100.00
48077;BME280;33854;57.708;12.008;2023-03-31T07:14:47;96508.34;;;1.54;100.00
48077;BME280;33854;57.708;12.008;2023-03-31T07:17:13;96518.59;;;1.65;100.00
48077;BME280;33854;57.708;12.008;2023-03-31T07:19:38;96524.56;;;1.65;100.00
48077;BME280;33854;57.708;12.008;2023-03-31T07:22:07;96520.72;;;1.60;100.00
48077;BME280;33854;57.708;12.008;2023-03-31T07:24:32;96548.28;;;1.69;100.00
48077;BME280;33854;57.708;12.008;2023-03-31T07:26:58;96540.09;;;1.64;100.00
48077;BME280;33854;57.708;12.008;2023-03-31T07:29:24;96570.47;;;1.70;100.00
48077;BME280;33854;57.708;12.008;2023-03-31T07:31:49;96585.06;;;1.69;100.00
48077;BME280;33854;57.708;12.008;2023-03-31T07:34:15;96602.94;;;1.71;100.00
48077;BME280;33854;57.708;12.008;2023-03-31T07:36:41;96617.53;;;1.70;100.00
48077;BME280;33854;57.708;12.008;2023-03-31T07:39:06;96630.28;;;1.72;100.00
48077;BME280;33854;57.708;12.008;2023-03-31T07:41:32;96657.72;;;1.60;100.00
48077;BME280;33854;57.708;12.008;2023-03-31T07:43:58;96675.59;;;1.62;100.00
48077;BME280;33854;57.708;12.008;2023-03-31T07:46:25;96693.22;;;1.66;100.00
48077;BME280;33854;57.708;12.008;2023-03-31T07:48:52;96697.13;;;1.72;100.00
48077;BME280;33854;57.708;12.008;2023-03-31T07:51:20;96694.78;;;1.69;100.00
48077;BME280;33854;57.708;12.008;2023-03-31T07:53:46;96714.59;;;1.67;100.00
48077;BME280;33854;57.708;12.008;2023-03-31T07:56:13;96733.66;;;1.64;100.00
48077;BME280;33854;57.708;12.008;2023-03-31T07:58:39;96727.47;;;1.67;100.00
48077;BME280;33854;57.708;12.008;2023-03-31T08:01:04;96751.75;;;1.63;100.00
48077;BME280;33854;57.708;12.008;2023-03-31T08:03:30;96752.00;;;1.71;100.00
48077;BME280;33854;57.708;12.008;2023-03-31T08:05:56;96760.88;;;1.67;100.00
48077;BME280;33854;57.708;12.008;2023-03-31T08:08:22;96764.75;;;1.72;100.00
48077;BME280;33854;57.708;12.008;2023-03-31T08:10:47;96755.53;;;1.81;100.00
48077;BME280;33854;57.708;12.008;2023-03-31T08:13:13;96758.47;;;1.88;100.00
48077;BME280;33854;57.708;12.008;2023-03-31T08:15:39;96786.88;;;1.86;100.00
48077;BME280;33854;57.708;12.008;2023-03-31T08:18:04;96804.38;;;1.81;100.00
48077;BME280;33854;57.708;12.008;2023-03-31T08:20:30;96823.78;;;1.85;100.00
48077;BME280;33854;57.708;12.008;2023-03-31T08:22:55;96849.63;;;1.84;100.00
48077;BME280;33854;57.708;12.008;2023-03-31T08:25:21;96856.94;;;1.77;100.00
48077;BME280;33854;57.708;12.008;2023-03-31T08:27:47;96865.53;;;1.89;100.00
48077;BME280;33854;57.708;12.008;2023-03-31T08:30:16;96890.97;;;1.81;100.00
48077;BME280;33854;57.708;12.008;2023-03-31T08:32:42;96897.13;;;1.78;100.00
48077;BME280;33854;57.708;12.008;2023-03-31T08:35:08;96915.50;;;1.85;100.00
48077;BME280;33854;57.708;12.008;2023-03-31T08:37:34;96928.09;;;1.77;100.00
48077;BME280;33854;57.708;12.008;2023-03-31T08:40:00;96943.53;;;1.77;100.00
48077;BME280;33854;57.708;12.008;2023-03-31T08:42:38;96949.28;;;1.80;100.00
48077;BME280;33854;57.708;12.008;2023-03-31T08:45:40;96946.28;;;1.86;100.00
48077;BME280;33854;57.708;12.008;2023-03-31T08:48:05;96953.81;;;1.77;100.00
48077;BME280;33854;57.708;12.008;2023-03-31T08:50:34;96983.69;;;1.90;100.00
48077;BME280;33854;57.708;12.008;2023-03-31T08:53:04;96994.69;;;1.92;100.00
48077;BME280;33854;57.708;12.008;2023-03-31T08:55:45;97030.78;;;1.91;100.00
48077;BME280;33854;57.708;12.008;2023-03-31T08:58:32;97076.56;;;1.86;100.00
48077;BME280;33854;57.708;12.008;2023-03-31T09:06:21;97164.59;;;1.77;100.00
48077;BME280;33854;57.708;12.008;2023-03-31T09:08:56;97150.69;;;1.66;100.00
48077;BME280;33854;57.708;12.008;2023-03-31T09:11:46;97176.94;;;1.71;100.00
48077;BME280;33854;57.708;12.008;2023-03-31T09:19:38;97216.53;;;1.69;100.00
48077;BME280;33854;57.708;12.008;2023-03-31T09:22:12;97240.81;;;1.78;100.00
48077;BME280;33854;57.708;12.008;2023-03-31T09:24:55;97267.31;;;1.78;100.00
48077;BME280;33854;57.708;12.008;2023-03-31T09:27:26;97260.72;;;1.74;100.00
48077;BME280;33854;57.708;12.008;2023-03-31T09:29:58;97268.97;;;1.79;100.00
48077;BME280;33854;57.708;12.008;2023-03-31T09:32:28;97281.09;;;1.77;100.00
48077;BME280;33854;57.708;12.008;2023-03-31T09:34:58;97308.31;;;1.67;100.00
48077;BME280;33854;57.708;12.008;2023-03-31T09:37:29;97326.50;;;1.64;100.00
48077;BME280;33854;57.708;12.008;2023-03-31T09:39:58;97329.00;;;1.65;100.00
48077;BME280;33854;57.708;12.008;2023-03-31T09:42:25;97341.97;;;1.77;100.00
48077;BME280;33854;57.708;12.008;2023-03-31T09:44:50;97347.06;;;1.64;100.00
48077;BME280;33854;57.708;12.008;2023-03-31T09:49:48;97421.03;;;1.73;100.00
48077;BME280;33854;57.708;12.008;2023-03-31T09:52:51;97482.69;;;1.87;100.00
48077;BME280;33854;57.708;12.008;2023-03-31T09:55:20;97518.16;;;1.82;100.00
48077;BME280;33854;57.708;12.008;2023-03-31T09:57:46;97548.47;;;1.77;100.00
48077;BME280;33854;57.708;12.008;2023-03-31T10:02:55;97583.72;;;1.89;100.00
48077;BME280;33854;57.708;12.008;2023-03-31T10:05:48;97597.69;;;1.85;100.00
48077;BME280;33854;57.708;12.008;2023-03-31T10:08:34;97634.50;;;1.86;100.00
48077;BME280;33854;57.708;12.008;2023-03-31T10:13:44;97666.28;;;1.99;100.00
48077;BME280;33854;57.708;12.008;2023-03-31T10:18:46;97709.53;;;1.92;100.00
48077;BME280;33854;57.708;12.008;2023-03-31T10:21:20;97753.06;;;1.95;100.00
48077;BME280;33854;57.708;12.008;2023-03-31T10:23:47;97766.69;;;1.97;100.00
48077;BME280;33854;57.708;12.008;2023-03-31T10:26:17;97783.38;;;2.04;100.00
48077;BME280;33854;57.708;12.008;2023-03-31T10:28:47;97801.50;;;2.03;100.00
48077;BME280;33854;57.708;12.008;2023-03-31T10:31:13;97825.06;;;1.95;100.00
48077;BME280;33854;57.708;12.008;2023-03-31T10:33:47;97884.34;;;2.23;100.00
48077;BME280;33854;57.708;12.008;2023-03-31T10:36:20;97915.28;;;2.22;100.00
48077;BME280;33854;57.708;12.008;2023-03-31T10:38:48;97967.91;;;2.32;100.00
48077;BME280;33854;57.708;12.008;2023-03-31T10:41:32;98013.56;;;2.28;100.00
48077;BME280;33854;57.708;12.008;2023-03-31T10:44:00;98023.03;;;2.28;100.00
48077;BME280;33854;57.708;12.008;2023-03-31T10:46:50;98053.41;;;2.37;100.00
48077;BME280;33854;57.708;12.008;2023-03-31T10:51:51;98074.66;;;2.41;100.00
48077;BME280;33854;57.708;12.008;2023-03-31T10:54:16;98082.22;;;2.44;100.00
48077;BME280;33854;57.708;12.008;2023-03-31T10:56:45;98075.31;;;2.28;100.00
48077;BME280;33854;57.708;12.008;2023-03-31T11:02:42;98049.25;;;2.35;100.00
48077;BME280;33854;57.708;12.008;2023-03-31T11:05:32;98026.38;;;2.44;100.00
48077;BME280;33854;57.708;12.008;2023-03-31T11:13:24;98074.28;;;2.62;100.00
48077;BME280;33854;57.708;12.008;2023-03-31T11:42:58;98137.56;;;2.51;100.00
48077;BME280;33854;57.708;12.008;2023-03-31T11:45:28;98097.22;;;2.51;100.00
48077;BME280;33854;57.708;12.008;2023-03-31T11:48:00;98098.56;;;2.58;100.00
48077;BME280;33854;57.708;12.008;2023-03-31T11:50:35;98108.31;;;2.67;100.00
48077;BME280;33854;57.708;12.008;2023-03-31T11:53:18;98132.66;;;2.62;100.00
48077;BME280;33854;57.708;12.008;2023-03-31T11:55:47;98150.63;;;2.63;100.00
48077;BME280;33854;57.708;12.008;2023-03-31T11:58:19;98178.94;;;2.48;100.00
48077;BME280;33854;57.708;12.008;2023-03-31T12:00:52;98177.38;;;2.61;100.00
48077;BME280;33854;57.708;12.008;2023-03-31T12:03:21;98165.31;;;2.61;100.00
48077;BME280;33854;57.708;12.008;2023-03-31T12:05:56;98169.03;;;2.56;100.00
48077;BME280;33854;57.708;12.008;2023-03-31T12:11:21;98169.44;;;2.33;100.00
48077;BME280;33854;57.708;12.008;2023-03-31T12:14:04;98124.56;;;2.38;100.00
48077;BME280;33854;57.708;12.008;2023-03-31T12:16:42;98084.84;;;2.42;100.00
48077;BME280;33854;57.708;12.008;2023-03-31T12:21:46;98119.31;;;2.40;100.00
48077;BME280;33854;57.708;12.008;2023-03-31T12:24:13;98105.28;;;2.45;100.00
48077;BME280;33854;57.708;12.008;2023-03-31T12:26:44;98077.78;;;2.46;100.00
48077;BME280;33854;57.708;12.008;2023-03-31T12:29:30;98091.25;;;2.35;100.00
48077;BME280;33854;57.708;12.008;2023-03-31T12:32:01;98068.66;;;2.24;100.00
48077;BME280;33854;57.708;12.008;2023-03-31T12:34:30;98058.22;;;2.27;100.00
48077;BME280;33854;57.708;12.008;2023-03-31T12:42:54;98054.63;;;2.30;100.00
48077;BME280;33854;57.708;12.008;2023-03-31T12:45:32;98098.88;;;2.37;100.00
48077;BME280;33854;57.708;12.008;2023-03-31T12:54:02;98143.81;;;2.47;100.00
48077;BME280;33854;57.708;12.008;2023-03-31T12:57:12;98172.47;;;2.41;100.00
48077;BME280;33854;57.708;12.008;2023-03-31T12:59:43;98171.13;;;2.49;100.00
48077;BME280;33854;57.708;12.008;2023-03-31T13:04:41;98222.00;;;2.44;100.00
48077;BME280;33854;57.708;12.008;2023-03-31T13:07:34;98222.78;;;2.46;100.00
48077;BME280;33854;57.708;12.008;2023-03-31T13:12:57;98251.75;;;2.34;100.00
48077;BME280;33854;57.708;12.008;2023-03-31T13:15:26;98247.69;;;2.46;100.00
48077;BME280;33854;57.708;12.008;2023-03-31T13:18:00;98232.09;;;2.49;100.00
48077;BME280;33854;57.708;12.008;2023-03-31T13:20:36;98235.91;;;2.57;100.00
48077;BME280;33854;57.708;12.008;2023-03-31T13:23:16;98269.13;;;2.62;100.00
48077;BME280;33854;57.708;12.008;2023-03-31T13:25:50;98305.13;;;2.79;100.00
48077;BME280;33854;57.708;12.008;2023-03-31T13:30:56;98380.75;;;2.78;100.00
48077;BME280;33854;57.708;12.008;2023-03-31T13:52:12;98534.06;;;2.85;100.00
48077;BME280;33854;57.708;12.008;2023-03-31T14:06:22;98568.28;;;2.87;100.00
48077;BME280;33854;57.708;12.008;2023-03-31T14:08:53;98597.31;;;2.73;100.00
48077;BME280;33854;57.708;12.008;2023-03-31T14:11:22;98606.56;;;2.77;100.00
48077;BME280;33854;57.708;12.008;2023-03-31T14:13:59;98601.03;;;2.85;100.00
48077;BME280;33854;57.708;12.008;2023-03-31T14:16:26;98567.63;;;2.83;100.00
48077;BME280;33854;57.708;12.008;2023-03-31T14:19:00;98572.00;;;2.81;100.00
48077;BME280;33854;57.708;12.008;2023-03-31T14:24:38;98587.44;;;2.64;100.00
48077;BME280;33854;57.708;12.008;2023-03-31T14:29:55;98536.94;;;2.62;100.00
48077;BME280;33854;57.708;12.008;2023-03-31T14:37:27;98572.91;;;2.63;100.00
48077;BME280;33854;57.708;12.008;2023-03-31T14:39:54;98554.91;;;2.63;100.00
48077;BME280;33854;57.708;12.008;2023-03-31T14:42:24;98572.31;;;2.58;100.00
48077;BME280;33854;57.708;12.008;2023-03-31T14:44:55;98530.19;;;2.59;100.00
48077;BME280;33854;57.708;12.008;2023-03-31T14:47:26;98521.19;;;2.68;100.00
48077;BME280;33854;57.708;12.008;2023-03-31T14:50:00;98533.00;;;2.72;100.00
48077;BME280;33854;57.708;12.008;2023-03-31T14:52:29;98541.78;;;2.68;100.00
48077;BME280;33854;57.708;12.008;2023-03-31T14:54:56;98541.09;;;2.64;100.00
48077;BME280;33854;57.708;12.008;2023-03-31T14:57:46;98520.50;;;2.64;100.00
48077;BME280;33854;57.708;12.008;2023-03-31T15:00:14;98498.44;;;2.59;100.00
48077;BME280;33854;57.708;12.008;2023-03-31T15:02:43;98487.84;;;2.48;100.00
48077;BME280;33854;57.708;12.008;2023-03-31T15:05:30;98456.50;;;2.57;100.00
48077;BME280;33854;57.708;12.008;2023-03-31T15:08:05;98453.63;;;2.46;100.00
48077;BME280;33854;57.708;12.008;2023-03-31T15:10:39;98443.41;;;2.44;100.00
48077;BME280;33854;57.708;12.008;2023-03-31T15:13:14;98424.88;;;2.55;100.00
48077;BME280;33854;57.708;12.008;2023-03-31T15:15:41;98431.91;;;2.51;100.00
48077;BME280;33854;57.708;12.008;2023-03-31T15:18:11;98422.28;;;2.55;100.00
48077;BME280;33854;57.708;12.008;2023-03-31T15:20:39;98453.41;;;2.50;100.00
48077;BME280;33854;57.708;12.008;2023-03-31T15:23:26;98457.03;;;2.46;100.00
48077;BME280;33854;57.708;12.008;2023-03-31T15:25:58;98419.28;;;2.47;100.00
48077;BME280;33854;57.708;12.008;2023-03-31T15:28:25;98418.50;;;2.45;100.00
48077;BME280;33854;57.708;12.008;2023-03-31T15:30:52;98435.00;;;2.41;100.00
48077;BME280;33854;57.708;12.008;2023-03-31T15:33:22;98428.28;;;2.21;100.00
48077;BME280;33854;57.708;12.008;2023-03-31T15:35:51;98365.88;;;2.16;100.00
48077;BME280;33854;57.708;12.008;2023-03-31T15:38:17;98359.31;;;2.10;100.00
48077;BME280;33854;57.708;12.008;2023-03-31T15:40:44;98334.84;;;2.19;100.00
48077;BME280;33854;57.708;12.008;2023-03-31T15:48:02;98275.00;;;2.15;100.00
48077;BME280;33854;57.708;12.008;2023-03-31T15:50:28;98313.38;;;2.20;100.00
48077;BME280;33854;57.708;12.008;2023-03-31T15:52:54;98306.22;;;2.09;100.00
48077;BME280;33854;57.708;12.008;2023-03-31T15:55:23;98311.13;;;1.97;100.00
48077;BME280;33854;57.708;12.008;2023-03-31T15:57:53;98270.50;;;2.03;100.00
48077;BME280;33854;57.708;12.008;2023-03-31T16:00:44;98228.69;;;2.15;100.00